BAW191 EGLL-EDDF
Flight info
| Callsign | BAW191 |
|---|---|
| Flight time | 1h 7m |
| Altitude | 35000 |
| Route | BPK Q295 MATCH DCT REDFA DCT TACHA DCT NOLRU DCT DIXAT DIXAT1A |
| Aircraft | A319/M-SDE3FGHIRWY/LB1 |
Departure
| Time | 2026-05-03 20:51 |
|---|---|
| Airport | London Heathrow Airport (EGLL) |
Arrival
| Time | 2026-05-03 21:59 |
|---|---|
| Airport | Frankfurt Main Airport (EDDF) |
| Time | Latitude | Longitude | Altitude | Speed | Heading |
|---|---|---|---|---|---|
| 2026-05-03 20:16 | 51.46830 | -0.48622 | 87 ft | 0 kts | 179° |
| 2026-05-03 20:40 | 51.46837 | -0.48622 | 90 ft | 4 kts | 176° |
| 2026-05-03 20:41 | 51.46862 | -0.48632 | 91 ft | 4 kts | 143° |
| 2026-05-03 20:41 | 51.46876 | -0.48663 | 91 ft | 4 kts | 95° |
| 2026-05-03 20:41 | 51.46876 | -0.48667 | 91 ft | 0 kts | 91° |
| 2026-05-03 20:44 | 51.46876 | -0.48641 | 88 ft | 5 kts | 89° |
| 2026-05-03 20:44 | 51.46877 | -0.48562 | 87 ft | 10 kts | 89° |
| 2026-05-03 20:44 | 51.46837 | -0.48473 | 88 ft | 13 kts | 178° |
| 2026-05-03 20:45 | 51.46742 | -0.48471 | 87 ft | 15 kts | 179° |
| 2026-05-03 20:45 | 51.46657 | -0.48440 | 88 ft | 12 kts | 122° |
| 2026-05-03 20:45 | 51.46652 | -0.48293 | 87 ft | 14 kts | 90° |
| 2026-05-03 20:45 | 51.46653 | -0.48123 | 87 ft | 16 kts | 90° |
| 2026-05-03 20:46 | 51.46653 | -0.47927 | 87 ft | 19 kts | 90° |
| 2026-05-03 20:46 | 51.46654 | -0.47708 | 87 ft | 21 kts | 89° |
| 2026-05-03 20:46 | 51.46655 | -0.47466 | 87 ft | 23 kts | 89° |
| 2026-05-03 20:46 | 51.46656 | -0.47201 | 87 ft | 25 kts | 89° |
| 2026-05-03 20:47 | 51.46657 | -0.46915 | 87 ft | 27 kts | 90° |
| 2026-05-03 20:47 | 51.46657 | -0.46621 | 87 ft | 27 kts | 90° |
| 2026-05-03 20:47 | 51.46659 | -0.46310 | 88 ft | 29 kts | 90° |
| 2026-05-03 20:47 | 51.46660 | -0.45975 | 87 ft | 31 kts | 90° |
| 2026-05-03 20:48 | 51.46661 | -0.45627 | 87 ft | 30 kts | 90° |
| 2026-05-03 20:48 | 51.46662 | -0.45306 | 87 ft | 25 kts | 90° |
| 2026-05-03 20:48 | 51.46663 | -0.45011 | 87 ft | 28 kts | 90° |
| 2026-05-03 20:48 | 51.46664 | -0.44690 | 87 ft | 28 kts | 90° |
| 2026-05-03 20:49 | 51.46665 | -0.44404 | 87 ft | 22 kts | 89° |
| 2026-05-03 20:49 | 51.46666 | -0.44233 | 87 ft | 10 kts | 90° |
| 2026-05-03 20:49 | 51.46664 | -0.44105 | 87 ft | 13 kts | 99° |
| 2026-05-03 20:49 | 51.46604 | -0.44058 | 87 ft | 9 kts | 179° |
| 2026-05-03 20:50 | 51.46518 | -0.44055 | 86 ft | 13 kts | 179° |
| 2026-05-03 20:50 | 51.46493 | -0.44099 | 87 ft | 0 kts | 270° |
| 2026-05-03 20:50 | 51.46493 | -0.44156 | 86 ft | 26 kts | 269° |
| 2026-05-03 20:50 | 51.46489 | -0.44790 | 89 ft | 87 kts | 269° |
| 2026-05-03 20:51 | 51.46485 | -0.46073 | 88 ft | 142 kts | 269° |
| 2026-05-03 20:51 | 51.46479 | -0.47798 | 469 ft | 156 kts | 269° |
| 2026-05-03 20:51 | 51.46481 | -0.49536 | 1142 ft | 155 kts | 269° |
| 2026-05-03 20:51 | 51.46597 | -0.51313 | 1573 ft | 172 kts | 288° |
| 2026-05-03 20:52 | 51.47186 | -0.53111 | 1946 ft | 193 kts | 300° |
| 2026-05-03 20:52 | 51.47918 | -0.55074 | 2293 ft | 218 kts | 301° |
| 2026-05-03 20:52 | 51.48727 | -0.57291 | 2806 ft | 242 kts | 298° |
| 2026-05-03 20:52 | 51.49540 | -0.59778 | 3481 ft | 260 kts | 297° |
| 2026-05-03 20:53 | 51.50403 | -0.62385 | 4385 ft | 270 kts | 300° |
| 2026-05-03 20:53 | 51.51640 | -0.64678 | 5338 ft | 276 kts | 324° |
| 2026-05-03 20:53 | 51.53440 | -0.65822 | 5756 ft | 280 kts | 352° |
| 2026-05-03 20:53 | 51.55367 | -0.65638 | 5943 ft | 279 kts | 17° |
| 2026-05-03 20:54 | 51.56973 | -0.63973 | 5992 ft | 278 kts | 50° |
| 2026-05-03 20:54 | 51.58922 | -0.58602 | 7466 ft | 280 kts | 58° |
| 2026-05-03 20:54 | 51.60041 | -0.56013 | 8354 ft | 285 kts | 54° |
| 2026-05-03 20:55 | 51.61233 | -0.53419 | 9217 ft | 292 kts | 53° |
| 2026-05-03 20:55 | 51.62485 | -0.50808 | 10048 ft | 298 kts | 53° |
| 2026-05-03 20:55 | 51.63700 | -0.47944 | 10396 ft | 321 kts | 60° |
| 2026-05-03 20:55 | 51.64805 | -0.44666 | 10664 ft | 344 kts | 64° |
| 2026-05-03 20:56 | 51.65860 | -0.41118 | 11212 ft | 356 kts | 66° |
| 2026-05-03 20:56 | 51.66902 | -0.37464 | 11904 ft | 362 kts | 66° |
| 2026-05-03 20:56 | 51.67962 | -0.33763 | 12626 ft | 367 kts | 66° |
| 2026-05-03 20:56 | 51.69060 | -0.30021 | 13339 ft | 372 kts | 66° |
| 2026-05-03 20:57 | 51.70193 | -0.26251 | 14009 ft | 377 kts | 65° |
| 2026-05-03 20:57 | 51.71341 | -0.22493 | 14644 ft | 381 kts | 65° |
| 2026-05-03 20:57 | 51.72524 | -0.18646 | 15295 ft | 384 kts | 65° |
| 2026-05-03 20:57 | 51.73714 | -0.14773 | 15944 ft | 388 kts | 65° |
| 2026-05-03 20:58 | 51.74749 | -0.10725 | 16588 ft | 390 kts | 74° |
| 2026-05-03 20:58 | 51.75336 | -0.06447 | 17221 ft | 392 kts | 84° |
| 2026-05-03 20:58 | 51.75693 | -0.02066 | 17878 ft | 395 kts | 84° |
| 2026-05-03 20:58 | 51.76057 | 0.02339 | 18454 ft | 399 kts | 84° |
| 2026-05-03 20:59 | 51.76428 | 0.06813 | 19023 ft | 403 kts | 84° |
| 2026-05-03 20:59 | 51.76800 | 0.11324 | 19595 ft | 407 kts | 84° |
| 2026-05-03 20:59 | 51.77174 | 0.15872 | 20176 ft | 411 kts | 85° |
| 2026-05-03 20:59 | 51.77550 | 0.20461 | 20749 ft | 415 kts | 85° |
| 2026-05-03 21:00 | 51.77965 | 0.25091 | 21290 ft | 420 kts | 81° |
| 2026-05-03 21:00 | 51.78419 | 0.28136 | 21635 ft | 423 kts | 77° |
| 2026-05-03 21:00 | 51.79417 | 0.34333 | 22325 ft | 428 kts | 78° |
| 2026-05-03 21:00 | 51.80162 | 0.39006 | 22824 ft | 432 kts | 78° |
| 2026-05-03 21:01 | 51.80909 | 0.43711 | 23327 ft | 435 kts | 78° |
| 2026-05-03 21:01 | 51.81662 | 0.48481 | 23760 ft | 439 kts | 78° |
| 2026-05-03 21:01 | 51.82418 | 0.53277 | 24125 ft | 443 kts | 78° |
| 2026-05-03 21:01 | 51.83181 | 0.58117 | 24535 ft | 446 kts | 78° |
| 2026-05-03 21:02 | 51.83948 | 0.62989 | 24958 ft | 448 kts | 78° |
| 2026-05-03 21:02 | 51.84715 | 0.67884 | 25385 ft | 451 kts | 79° |
| 2026-05-03 21:02 | 51.85485 | 0.72808 | 25814 ft | 453 kts | 79° |
| 2026-05-03 21:02 | 51.86259 | 0.77758 | 26239 ft | 455 kts | 79° |
| 2026-05-03 21:03 | 51.87033 | 0.82734 | 26665 ft | 458 kts | 79° |
| 2026-05-03 21:03 | 51.87811 | 0.87746 | 27086 ft | 460 kts | 79° |
| 2026-05-03 21:03 | 51.88589 | 0.92781 | 27486 ft | 462 kts | 79° |
| 2026-05-03 21:03 | 51.89365 | 0.97841 | 27854 ft | 465 kts | 79° |
| 2026-05-03 21:04 | 51.90135 | 1.02878 | 28214 ft | 468 kts | 79° |
| 2026-05-03 21:04 | 51.90927 | 1.08062 | 28585 ft | 470 kts | 80° |
| 2026-05-03 21:04 | 51.91704 | 1.13159 | 28948 ft | 473 kts | 80° |
| 2026-05-03 21:04 | 51.92494 | 1.18339 | 29311 ft | 475 kts | 80° |
| 2026-05-03 21:05 | 51.93284 | 1.23544 | 29673 ft | 477 kts | 80° |
| 2026-05-03 21:05 | 51.94074 | 1.28784 | 29997 ft | 480 kts | 80° |
| 2026-05-03 21:05 | 51.94863 | 1.34039 | 30284 ft | 482 kts | 80° |
| 2026-05-03 21:05 | 51.95654 | 1.39318 | 30667 ft | 481 kts | 80° |
| 2026-05-03 21:06 | 51.96444 | 1.44589 | 31071 ft | 480 kts | 80° |
| 2026-05-03 21:06 | 51.97228 | 1.49839 | 31425 ft | 480 kts | 80° |
| 2026-05-03 21:06 | 51.98009 | 1.55120 | 31777 ft | 481 kts | 80° |
| 2026-05-03 21:06 | 51.98785 | 1.60387 | 32164 ft | 481 kts | 80° |
| 2026-05-03 21:07 | 51.99558 | 1.65659 | 32567 ft | 480 kts | 80° |
| 2026-05-03 21:07 | 52.00329 | 1.70937 | 32984 ft | 479 kts | 80° |
| 2026-05-03 21:07 | 52.01097 | 1.76194 | 33399 ft | 479 kts | 80° |
| 2026-05-03 21:07 | 52.01864 | 1.81451 | 33823 ft | 478 kts | 80° |
| 2026-05-03 21:08 | 52.02628 | 1.86684 | 34179 ft | 477 kts | 80° |
| 2026-05-03 21:08 | 52.03394 | 1.91931 | 34536 ft | 477 kts | 80° |
| 2026-05-03 21:08 | 52.04154 | 1.97171 | 34807 ft | 477 kts | 79° |
| 2026-05-03 21:08 | 52.04908 | 2.02408 | 34899 ft | 475 kts | 79° |
| 2026-05-03 21:09 | 52.06400 | 2.12840 | 34923 ft | 473 kts | 79° |
| 2026-05-03 21:09 | 52.07877 | 2.23253 | 34920 ft | 472 kts | 80° |
| 2026-05-03 21:10 | 52.09340 | 2.33670 | 34924 ft | 472 kts | 80° |
| 2026-05-03 21:10 | 52.10802 | 2.44085 | 34923 ft | 472 kts | 80° |
| 2026-05-03 21:11 | 52.12378 | 2.54471 | 34905 ft | 474 kts | 77° |
| 2026-05-03 21:11 | 52.14354 | 2.64721 | 34897 ft | 475 kts | 74° |
| 2026-05-03 21:12 | 52.16432 | 2.74934 | 34902 ft | 475 kts | 75° |
| 2026-05-03 21:12 | 52.18424 | 2.85207 | 34906 ft | 475 kts | 75° |
| 2026-05-03 21:13 | 52.20338 | 2.95503 | 34915 ft | 475 kts | 76° |
| 2026-05-03 21:13 | 52.22232 | 3.05833 | 34896 ft | 476 kts | 76° |
| 2026-05-03 21:14 | 52.24014 | 3.16166 | 34894 ft | 475 kts | 83° |
| 2026-05-03 21:14 | 52.24246 | 3.26799 | 34922 ft | 466 kts | 101° |
| 2026-05-03 21:15 | 52.22577 | 3.36868 | 34906 ft | 457 kts | 116° |
| 2026-05-03 21:15 | 52.20270 | 3.46536 | 34893 ft | 458 kts | 116° |
| 2026-05-03 21:16 | 52.17941 | 3.56201 | 34898 ft | 459 kts | 116° |
| 2026-05-03 21:16 | 52.15601 | 3.65885 | 34902 ft | 460 kts | 116° |
| 2026-05-03 21:17 | 52.13633 | 3.74006 | 34913 ft | 460 kts | 116° |
| 2026-05-03 21:17 | 52.11286 | 3.83639 | 34915 ft | 461 kts | 116° |
| 2026-05-03 21:18 | 52.08925 | 3.93322 | 34899 ft | 461 kts | 116° |
| 2026-05-03 21:18 | 52.06545 | 4.03018 | 34903 ft | 462 kts | 116° |
| 2026-05-03 21:19 | 52.04152 | 4.12701 | 34909 ft | 463 kts | 116° |
| 2026-05-03 21:19 | 52.01749 | 4.22402 | 34926 ft | 463 kts | 117° |
| 2026-05-03 21:20 | 51.99340 | 4.32094 | 34929 ft | 463 kts | 117° |
| 2026-05-03 21:20 | 51.96930 | 4.41771 | 34934 ft | 463 kts | 117° |
| 2026-05-03 21:21 | 51.94502 | 4.51461 | 34929 ft | 463 kts | 117° |
| 2026-05-03 21:21 | 51.92065 | 4.61122 | 34933 ft | 463 kts | 117° |
| 2026-05-03 21:22 | 51.89618 | 4.70778 | 34931 ft | 463 kts | 117° |
| 2026-05-03 21:22 | 51.87168 | 4.80406 | 34924 ft | 463 kts | 117° |
| 2026-05-03 21:23 | 51.84714 | 4.90027 | 34915 ft | 463 kts | 117° |
| 2026-05-03 21:23 | 51.82247 | 4.99649 | 34921 ft | 464 kts | 118° |
| 2026-05-03 21:24 | 51.79781 | 5.09223 | 34923 ft | 464 kts | 118° |
| 2026-05-03 21:24 | 51.77298 | 5.18833 | 34929 ft | 464 kts | 118° |
| 2026-05-03 21:25 | 51.74806 | 5.28446 | 34933 ft | 464 kts | 118° |
| 2026-05-03 21:25 | 51.72297 | 5.38054 | 34915 ft | 464 kts | 118° |
| 2026-05-03 21:26 | 51.69780 | 5.47651 | 34920 ft | 465 kts | 118° |
| 2026-05-03 21:26 | 51.67260 | 5.57240 | 34906 ft | 465 kts | 118° |
| 2026-05-03 21:27 | 51.64722 | 5.66832 | 34920 ft | 465 kts | 118° |
| 2026-05-03 21:27 | 51.62185 | 5.76396 | 34926 ft | 465 kts | 118° |
| 2026-05-03 21:28 | 51.59638 | 5.85959 | 34912 ft | 465 kts | 118° |
| 2026-05-03 21:28 | 51.57085 | 5.95529 | 34924 ft | 466 kts | 118° |
| 2026-05-03 21:29 | 51.54518 | 6.05083 | 34926 ft | 465 kts | 118° |
| 2026-05-03 21:29 | 51.51939 | 6.14609 | 34929 ft | 465 kts | 118° |
| 2026-05-03 21:30 | 51.49368 | 6.24148 | 34931 ft | 466 kts | 117° |
| 2026-05-03 21:30 | 51.46991 | 6.33755 | 34918 ft | 467 kts | 115° |
| 2026-05-03 21:31 | 51.44681 | 6.43481 | 34935 ft | 467 kts | 116° |
| 2026-05-03 21:31 | 51.42328 | 6.53183 | 34948 ft | 466 kts | 116° |
| 2026-05-03 21:32 | 51.39928 | 6.62833 | 34956 ft | 466 kts | 116° |
| 2026-05-03 21:32 | 51.37511 | 6.72463 | 34923 ft | 466 kts | 116° |
| 2026-05-03 21:33 | 51.35095 | 6.82097 | 34958 ft | 465 kts | 116° |
| 2026-05-03 21:33 | 51.32686 | 6.91682 | 34981 ft | 464 kts | 116° |
| 2026-05-03 21:34 | 51.30273 | 7.01240 | 34981 ft | 463 kts | 117° |
| 2026-05-03 21:34 | 51.28775 | 7.05733 | 34968 ft | 455 kts | 129° |
| 2026-05-03 21:34 | 51.26805 | 7.09645 | 34976 ft | 448 kts | 140° |
| 2026-05-03 21:35 | 51.21851 | 7.15312 | 34940 ft | 433 kts | 160° |
| 2026-05-03 21:35 | 51.16163 | 7.17887 | 34975 ft | 423 kts | 174° |
| 2026-05-03 21:36 | 51.10433 | 7.20123 | 34909 ft | 430 kts | 158° |
| 2026-05-03 21:36 | 51.07929 | 7.22769 | 34417 ft | 439 kts | 141° |
| 2026-05-03 21:36 | 51.05874 | 7.26409 | 33771 ft | 445 kts | 134° |
| 2026-05-03 21:37 | 51.03926 | 7.30252 | 32964 ft | 447 kts | 134° |
| 2026-05-03 21:37 | 51.01981 | 7.34128 | 32108 ft | 451 kts | 134° |
| 2026-05-03 21:37 | 51.00024 | 7.38039 | 31221 ft | 455 kts | 134° |
| 2026-05-03 21:37 | 50.98051 | 7.41992 | 30304 ft | 459 kts | 134° |
| 2026-05-03 21:38 | 50.96066 | 7.45979 | 29239 ft | 463 kts | 133° |
| 2026-05-03 21:38 | 50.94063 | 7.49995 | 28335 ft | 462 kts | 133° |
| 2026-05-03 21:38 | 50.92081 | 7.53962 | 27658 ft | 456 kts | 133° |
| 2026-05-03 21:38 | 50.90127 | 7.57877 | 27005 ft | 450 kts | 134° |
| 2026-05-03 21:39 | 50.88206 | 7.61734 | 26372 ft | 444 kts | 134° |
| 2026-05-03 21:39 | 50.86305 | 7.65558 | 25727 ft | 439 kts | 134° |
| 2026-05-03 21:39 | 50.84431 | 7.69333 | 25093 ft | 435 kts | 134° |
| 2026-05-03 21:39 | 50.82573 | 7.73075 | 24472 ft | 430 kts | 134° |
| 2026-05-03 21:40 | 50.80736 | 7.76781 | 23855 ft | 427 kts | 134° |
| 2026-05-03 21:40 | 50.78914 | 7.80462 | 23156 ft | 423 kts | 133° |
| 2026-05-03 21:40 | 50.77107 | 7.84098 | 22439 ft | 419 kts | 134° |
| 2026-05-03 21:40 | 50.75310 | 7.87693 | 21745 ft | 415 kts | 133° |
| 2026-05-03 21:41 | 50.73521 | 7.91251 | 21049 ft | 412 kts | 134° |
| 2026-05-03 21:41 | 50.71743 | 7.94764 | 20399 ft | 409 kts | 134° |
| 2026-05-03 21:41 | 50.69971 | 7.98248 | 19769 ft | 406 kts | 134° |
| 2026-05-03 21:41 | 50.68210 | 8.01708 | 19200 ft | 402 kts | 134° |
| 2026-05-03 21:42 | 50.66462 | 8.05129 | 18637 ft | 399 kts | 134° |
| 2026-05-03 21:42 | 50.64721 | 8.08522 | 18029 ft | 396 kts | 134° |
| 2026-05-03 21:42 | 50.62992 | 8.11872 | 17393 ft | 393 kts | 134° |
| 2026-05-03 21:42 | 50.61271 | 8.15195 | 16771 ft | 389 kts | 134° |
| 2026-05-03 21:43 | 50.59564 | 8.18483 | 16138 ft | 386 kts | 134° |
| 2026-05-03 21:43 | 50.57869 | 8.21738 | 15516 ft | 382 kts | 134° |
| 2026-05-03 21:43 | 50.56194 | 8.24944 | 14914 ft | 378 kts | 134° |
| 2026-05-03 21:43 | 50.54529 | 8.28120 | 14428 ft | 372 kts | 134° |
| 2026-05-03 21:44 | 50.52923 | 8.31188 | 14311 ft | 355 kts | 134° |
| 2026-05-03 21:44 | 50.51394 | 8.34125 | 14187 ft | 340 kts | 134° |
| 2026-05-03 21:44 | 50.49937 | 8.36940 | 14071 ft | 326 kts | 134° |
| 2026-05-03 21:44 | 50.48525 | 8.39656 | 13917 ft | 315 kts | 134° |
| 2026-05-03 21:45 | 50.47148 | 8.42292 | 13625 ft | 310 kts | 134° |
| 2026-05-03 21:45 | 50.45787 | 8.44900 | 13255 ft | 307 kts | 134° |
| 2026-05-03 21:45 | 50.44441 | 8.47488 | 12883 ft | 306 kts | 134° |
| 2026-05-03 21:45 | 50.43102 | 8.50067 | 12525 ft | 304 kts | 134° |
| 2026-05-03 21:46 | 50.41776 | 8.52631 | 12154 ft | 302 kts | 134° |
| 2026-05-03 21:46 | 50.40459 | 8.55182 | 11781 ft | 300 kts | 134° |
| 2026-05-03 21:46 | 50.39154 | 8.57716 | 11429 ft | 299 kts | 134° |
| 2026-05-03 21:46 | 50.37853 | 8.60243 | 11082 ft | 297 kts | 134° |
| 2026-05-03 21:47 | 50.36562 | 8.62751 | 10737 ft | 296 kts | 134° |
| 2026-05-03 21:47 | 50.35277 | 8.65261 | 10368 ft | 294 kts | 134° |
| 2026-05-03 21:47 | 50.34005 | 8.67758 | 10021 ft | 293 kts | 134° |
| 2026-05-03 21:47 | 50.32737 | 8.70252 | 9639 ft | 292 kts | 134° |
| 2026-05-03 21:48 | 50.31479 | 8.72732 | 9273 ft | 290 kts | 134° |
| 2026-05-03 21:48 | 50.30241 | 8.75202 | 8917 ft | 288 kts | 134° |
| 2026-05-03 21:48 | 50.29009 | 8.77665 | 8564 ft | 286 kts | 134° |
| 2026-05-03 21:48 | 50.27788 | 8.80108 | 8209 ft | 285 kts | 134° |
| 2026-05-03 21:49 | 50.26568 | 8.82540 | 7857 ft | 283 kts | 134° |
| 2026-05-03 21:49 | 50.25352 | 8.84957 | 7508 ft | 282 kts | 134° |
| 2026-05-03 21:49 | 50.24159 | 8.87325 | 7165 ft | 281 kts | 134° |
| 2026-05-03 21:49 | 50.22940 | 8.89745 | 6825 ft | 279 kts | 134° |
| 2026-05-03 21:50 | 50.21746 | 8.92114 | 6605 ft | 274 kts | 134° |
| 2026-05-03 21:50 | 50.20608 | 8.94386 | 6484 ft | 265 kts | 134° |
| 2026-05-03 21:50 | 50.19497 | 8.96626 | 6361 ft | 256 kts | 134° |
| 2026-05-03 21:50 | 50.18429 | 8.98795 | 6232 ft | 248 kts | 134° |
| 2026-05-03 21:51 | 50.17388 | 9.00886 | 6104 ft | 238 kts | 137° |
| 2026-05-03 21:51 | 50.16099 | 9.02289 | 5965 ft | 213 kts | 170° |
| 2026-05-03 21:51 | 50.14708 | 9.02286 | 5729 ft | 196 kts | 204° |
| 2026-05-03 21:51 | 50.13588 | 9.01184 | 5406 ft | 193 kts | 221° |
| 2026-05-03 21:52 | 50.12564 | 8.99809 | 5078 ft | 195 kts | 224° |
| 2026-05-03 21:52 | 50.11609 | 8.98312 | 4746 ft | 195 kts | 240° |
| 2026-05-03 21:52 | 50.11349 | 8.96302 | 4422 ft | 195 kts | 278° |
| 2026-05-03 21:52 | 50.11648 | 8.94240 | 4062 ft | 196 kts | 278° |
| 2026-05-03 21:53 | 50.11683 | 8.92162 | 4011 ft | 187 kts | 262° |
| 2026-05-03 21:53 | 50.11405 | 8.90266 | 4013 ft | 175 kts | 253° |
| 2026-05-03 21:53 | 50.11034 | 8.88479 | 4049 ft | 172 kts | 251° |
| 2026-05-03 21:53 | 50.10633 | 8.86707 | 4004 ft | 173 kts | 251° |
| 2026-05-03 21:54 | 50.10225 | 8.84948 | 3840 ft | 172 kts | 250° |
| 2026-05-03 21:54 | 50.09817 | 8.83207 | 3640 ft | 171 kts | 250° |
| 2026-05-03 21:54 | 50.09409 | 8.81474 | 3423 ft | 170 kts | 250° |
| 2026-05-03 21:54 | 50.09002 | 8.79746 | 3200 ft | 169 kts | 250° |
| 2026-05-03 21:55 | 50.08596 | 8.78026 | 2968 ft | 170 kts | 250° |
| 2026-05-03 21:55 | 50.08186 | 8.76290 | 2742 ft | 171 kts | 250° |
| 2026-05-03 21:55 | 50.07775 | 8.74550 | 2511 ft | 171 kts | 250° |
| 2026-05-03 21:55 | 50.07376 | 8.72864 | 2284 ft | 160 kts | 250° |
| 2026-05-03 21:56 | 50.07002 | 8.71284 | 2084 ft | 149 kts | 249° |
| 2026-05-03 21:56 | 50.06669 | 8.69876 | 1882 ft | 130 kts | 249° |
| 2026-05-03 21:56 | 50.06364 | 8.68591 | 1720 ft | 124 kts | 249° |
| 2026-05-03 21:56 | 50.06068 | 8.67345 | 1554 ft | 122 kts | 249° |
| 2026-05-03 21:57 | 50.05778 | 8.66102 | 1381 ft | 122 kts | 249° |
| 2026-05-03 21:57 | 50.05480 | 8.64860 | 1208 ft | 123 kts | 249° |
| 2026-05-03 21:57 | 50.05186 | 8.63594 | 1029 ft | 125 kts | 251° |
| 2026-05-03 21:57 | 50.04879 | 8.62325 | 872 ft | 126 kts | 249° |
| 2026-05-03 21:58 | 50.04573 | 8.61042 | 716 ft | 126 kts | 249° |
| 2026-05-03 21:58 | 50.04269 | 8.59756 | 558 ft | 126 kts | 249° |
| 2026-05-03 21:58 | 50.03962 | 8.58474 | 386 ft | 127 kts | 249° |
| 2026-05-03 21:58 | 50.03688 | 8.57312 | 351 ft | 87 kts | 249° |
| 2026-05-03 21:59 | 50.03567 | 8.56818 | 348 ft | 32 kts | 249° |
| 2026-05-03 21:59 | 50.03486 | 8.56476 | 353 ft | 32 kts | 250° |
| 2026-05-03 21:59 | 50.03430 | 8.56155 | 346 ft | 30 kts | 273° |
| 2026-05-03 21:59 | 50.03454 | 8.55917 | 346 ft | 17 kts | 280° |
| 2026-05-03 22:00 | 50.03484 | 8.55720 | 347 ft | 20 kts | 308° |
| 2026-05-03 22:00 | 50.03575 | 8.55815 | 347 ft | 21 kts | 72° |
| 2026-05-03 22:00 | 50.03629 | 8.56041 | 349 ft | 24 kts | 70° |
| 2026-05-03 22:00 | 50.03689 | 8.56295 | 349 ft | 26 kts | 70° |
| 2026-05-03 22:01 | 50.03756 | 8.56577 | 353 ft | 28 kts | 70° |
| 2026-05-03 22:01 | 50.03823 | 8.56848 | 351 ft | 26 kts | 69° |
| 2026-05-03 22:01 | 50.03883 | 8.57107 | 349 ft | 25 kts | 70° |
| 2026-05-03 22:01 | 50.03944 | 8.57360 | 348 ft | 25 kts | 69° |
| 2026-05-03 22:02 | 50.04005 | 8.57611 | 348 ft | 25 kts | 69° |
| 2026-05-03 22:02 | 50.04064 | 8.57860 | 346 ft | 25 kts | 69° |
| 2026-05-03 22:02 | 50.04125 | 8.58107 | 351 ft | 24 kts | 69° |
| 2026-05-03 22:02 | 50.04182 | 8.58354 | 348 ft | 24 kts | 72° |
| 2026-05-03 22:03 | 50.04240 | 8.58598 | 351 ft | 24 kts | 69° |
| 2026-05-03 22:03 | 50.04299 | 8.58839 | 352 ft | 24 kts | 69° |
| 2026-05-03 22:03 | 50.04337 | 8.58998 | 347 ft | 24 kts | 69° |
| 2026-05-03 22:03 | 50.04395 | 8.59235 | 353 ft | 22 kts | 70° |
| 2026-05-03 22:04 | 50.04451 | 8.59447 | 347 ft | 20 kts | 50° |
| 2026-05-03 22:04 | 50.04543 | 8.59468 | 346 ft | 12 kts | 357° |
| 2026-05-03 22:04 | 50.04624 | 8.59461 | 346 ft | 12 kts | 355° |
| 2026-05-03 22:04 | 50.04707 | 8.59438 | 348 ft | 12 kts | 345° |
| 2026-05-03 22:05 | 50.04783 | 8.59397 | 346 ft | 10 kts | 340° |
| 2026-05-03 22:05 | 50.04837 | 8.59334 | 349 ft | 10 kts | 295° |
| 2026-05-03 22:05 | 50.04838 | 8.59237 | 346 ft | 8 kts | 245° |
| 2026-05-03 22:05 | 50.04825 | 8.59200 | 353 ft | 1 kts | 248° |
| 2026-05-03 22:06 | 50.04824 | 8.59190 | 350 ft | 1 kts | 255° |
| 2026-05-03 22:06 | 50.04820 | 8.59173 | 348 ft | 3 kts | 253° |
| 2026-05-03 22:06 | 50.04812 | 8.59129 | 352 ft | 6 kts | 252° |
| 2026-05-03 22:06 | 50.04816 | 8.59084 | 346 ft | 4 kts | 311° |
| 2026-05-03 22:07 | 50.04844 | 8.59068 | 346 ft | 5 kts | 341° |
| 2026-05-03 22:07 | 50.04875 | 8.59050 | 353 ft | 2 kts | 340° |
| 2026-05-03 22:07 | 50.04880 | 8.59047 | 351 ft | 0 kts | 340° |